createdAt,value
2019-04-07T00:00:08.954Z,8.40
2019-04-07T00:02:37.391Z,8.60
2019-04-07T00:05:13.640Z,8.60
2019-04-07T00:07:37.922Z,8.70
2019-04-07T00:10:10.061Z,8.70
2019-04-07T00:12:38.453Z,8.70
2019-04-07T00:15:07.054Z,8.70
2019-04-07T00:17:36.152Z,8.60
2019-04-07T00:20:07.332Z,8.50
2019-04-07T00:22:35.741Z,8.50
2019-04-07T00:25:05.383Z,8.50
2019-04-07T00:27:33.769Z,8.40
2019-04-07T00:30:02.441Z,8.40
2019-04-07T00:32:30.835Z,8.30
2019-04-07T00:34:59.884Z,8.20
2019-04-07T00:37:29.477Z,8.10
2019-04-07T00:39:58.940Z,8.00
2019-04-07T00:42:27.932Z,8.00
2019-04-07T00:44:56.347Z,7.90
2019-04-07T00:47:24.925Z,7.80
2019-04-07T00:49:53.401Z,7.80
2019-04-07T00:52:23.700Z,7.70
2019-04-07T00:54:52.700Z,7.70
2019-04-07T00:57:21.102Z,7.60
2019-04-07T00:59:49.495Z,7.60
2019-04-07T01:02:19.555Z,7.80
2019-04-07T01:04:47.964Z,7.90
2019-04-07T01:07:16.353Z,8.10
2019-04-07T01:09:45.310Z,8.10
2019-04-07T01:12:14.819Z,8.20
2019-04-07T01:14:44.244Z,8.30
2019-04-07T01:17:13.733Z,8.20
2019-04-07T01:19:43.512Z,8.20
2019-04-07T01:22:11.903Z,8.20
2019-04-07T01:24:40.641Z,8.20
2019-04-07T01:27:10.430Z,8.20
2019-04-07T01:29:39.953Z,8.30
2019-04-07T01:32:08.944Z,8.30
2019-04-07T01:34:37.348Z,8.30
2019-04-07T01:37:05.742Z,8.10
2019-04-07T01:39:34.868Z,7.90
2019-04-07T01:42:05.897Z,7.80
2019-04-07T01:44:37.159Z,7.70
2019-04-07T01:47:09.903Z,7.50
2019-04-07T01:49:55.554Z,7.30
2019-04-07T01:52:26.253Z,7.30
2019-04-07T01:55:12.937Z,7.10
2019-04-07T01:57:42.989Z,7.00
2019-04-07T02:00:19.984Z,7.00
2019-04-07T02:02:52.672Z,6.90
2019-04-07T02:05:39.308Z,6.90
2019-04-07T02:08:12.480Z,6.70
2019-04-07T02:10:45.892Z,6.70
2019-04-07T02:13:16.590Z,6.70
2019-04-07T02:16:02.883Z,6.70
2019-04-07T02:18:40.029Z,6.80
2019-04-07T02:21:10.576Z,6.80
2019-04-07T02:23:55.956Z,6.90
2019-04-07T02:26:25.984Z,7.00
2019-04-07T02:29:05.874Z,7.00
2019-04-07T02:31:54.035Z,7.00
2019-04-07T02:34:27.903Z,7.10
2019-04-07T02:37:03.001Z,7.20
2019-04-07T02:39:50.513Z,7.30
2019-04-07T02:42:30.404Z,7.50
2019-04-07T02:45:01.387Z,7.50
2019-04-07T02:47:35.304Z,7.40
2019-04-07T02:50:07.661Z,7.50
2019-04-07T02:52:54.679Z,7.70
2019-04-07T02:55:25.766Z,7.80
2019-04-07T02:57:58.112Z,7.70
2019-04-07T03:00:45.432Z,7.70
2019-04-07T03:03:34.347Z,7.60
2019-04-07T03:06:05.357Z,7.60
2019-04-07T03:08:38.453Z,7.50
2019-04-07T03:11:09.543Z,7.50
2019-04-07T03:13:52.148Z,7.60
2019-04-07T03:16:22.854Z,7.60
2019-04-07T03:18:52.960Z,7.70
2019-04-07T03:21:23.004Z,7.60
2019-04-07T03:23:56.497Z,7.60
2019-04-07T03:26:29.543Z,7.60
2019-04-07T03:29:16.178Z,7.70
2019-04-07T03:31:51.204Z,7.70
2019-04-07T03:34:38.774Z,7.70
2019-04-07T03:37:22.956Z,7.60
2019-04-07T03:39:44.248Z,7.60
2019-04-07T03:42:14.524Z,7.50
2019-04-07T03:44:48.934Z,7.40
2019-04-07T03:47:23.405Z,7.40
2019-04-07T03:49:54.932Z,7.30
2019-04-07T03:55:20.598Z,7.20
2019-04-07T03:58:10.018Z,7.30
2019-04-07T04:03:34.366Z,7.40
2019-04-07T04:06:11.777Z,7.40
2019-04-07T04:08:45.729Z,7.40
2019-04-07T04:11:19.112Z,7.50
2019-04-07T04:13:51.684Z,7.50
2019-04-07T04:16:20.180Z,7.50
2019-04-07T04:18:48.788Z,7.50
2019-04-07T04:21:17.724Z,7.50
2019-04-07T04:23:46.858Z,7.70
2019-04-07T04:26:15.236Z,7.90
2019-04-07T04:28:44.270Z,8.00
2019-04-07T04:31:14.042Z,7.90
2019-04-07T04:33:42.975Z,7.80
2019-04-07T04:36:11.389Z,7.80
2019-04-07T04:38:40.480Z,7.80
2019-04-07T04:41:10.107Z,7.70
2019-04-07T04:43:40.361Z,7.70
2019-04-07T04:46:10.951Z,7.60
2019-04-07T04:48:39.475Z,7.50
2019-04-07T04:51:08.598Z,7.50
2019-04-07T04:53:38.149Z,7.50
2019-04-07T04:56:07.643Z,7.40
2019-04-07T04:58:36.669Z,7.30
2019-04-07T05:01:05.081Z,7.30
2019-04-07T05:03:33.883Z,7.30
2019-04-07T05:06:03.671Z,7.30
2019-04-07T05:08:32.634Z,7.30
2019-04-07T05:11:01.610Z,7.30
2019-04-07T05:13:30.652Z,7.30
2019-04-07T05:15:59.427Z,7.30
2019-04-07T05:18:28.968Z,7.20
2019-04-07T05:20:58.217Z,7.20
2019-04-07T05:23:27.173Z,7.20
2019-04-07T05:25:55.706Z,7.20
2019-04-07T05:28:24.633Z,7.30
2019-04-07T05:30:53.384Z,7.30
2019-04-07T05:33:22.373Z,7.40
2019-04-07T05:35:50.772Z,7.50
2019-04-07T05:38:19.234Z,7.50
2019-04-07T05:40:47.643Z,7.70
2019-04-07T05:43:16.147Z,7.80
2019-04-07T05:45:45.466Z,7.90
2019-04-07T05:48:17.465Z,7.90
2019-04-07T05:50:44.913Z,8.10
2019-04-07T05:53:14.775Z,8.30
2019-04-07T05:55:43.768Z,8.50
2019-04-07T05:58:14.811Z,8.60
2019-04-07T06:00:45.740Z,8.80
2019-04-07T06:03:12.664Z,8.70
2019-04-07T06:05:41.059Z,8.80
2019-04-07T06:08:23.633Z,8.80
2019-04-07T06:10:40.299Z,8.90
2019-04-07T06:13:12.919Z,8.90
2019-04-07T06:15:40.307Z,9.00
2019-04-07T06:18:09.388Z,9.10
2019-04-07T06:20:38.036Z,9.30
2019-04-07T06:23:06.406Z,9.40
2019-04-07T06:25:38.770Z,9.50
2019-04-07T06:28:05.416Z,9.50
2019-04-07T06:30:36.098Z,9.50
2019-04-07T06:33:06.969Z,9.50
2019-04-07T06:35:34.777Z,9.40
2019-04-07T06:38:06.690Z,9.40
2019-04-07T06:40:33.849Z,9.40
2019-04-07T06:43:05.234Z,9.50
2019-04-07T06:45:40.830Z,9.50
2019-04-07T06:48:11.484Z,9.50
2019-04-07T06:50:54.809Z,9.70
2019-04-07T06:53:25.858Z,9.70
2019-04-07T06:56:00.068Z,9.80
2019-04-07T06:58:43.832Z,9.80
2019-04-07T07:01:29.654Z,9.90
2019-04-07T07:04:18.427Z,9.90
2019-04-07T07:06:48.505Z,10.00
2019-04-07T07:09:34.960Z,10.10
2019-04-07T07:12:19.196Z,10.10
2019-04-07T07:15:00.965Z,10.30
2019-04-07T07:17:36.524Z,10.40
2019-04-07T07:20:18.811Z,10.50
2019-04-07T07:22:52.663Z,10.70
2019-04-07T07:25:21.565Z,10.70
2019-04-07T07:27:49.961Z,10.80
2019-04-07T07:30:19.594Z,10.90
2019-04-07T07:32:48.649Z,11.10
2019-04-07T07:35:18.009Z,11.30
2019-04-07T07:37:47.606Z,11.50
2019-04-07T07:40:18.376Z,11.60
2019-04-07T07:42:49.812Z,11.80
2019-04-07T07:45:17.592Z,12.00
2019-04-07T07:47:51.379Z,12.10
2019-04-07T07:50:17.849Z,12.20
2019-04-07T07:52:49.251Z,12.40
2019-04-07T07:55:17.307Z,12.50
2019-04-07T07:57:45.676Z,12.60
2019-04-07T08:00:14.583Z,12.70
2019-04-07T08:02:44.317Z,12.90
2019-04-07T08:05:13.594Z,13.00
2019-04-07T08:07:45.733Z,13.20
2019-04-07T08:10:13.746Z,13.30
2019-04-07T08:12:42.189Z,13.50
2019-04-07T08:15:10.676Z,13.60
2019-04-07T08:17:39.166Z,13.70
2019-04-07T08:20:08.507Z,13.90
2019-04-07T08:22:42.335Z,14.00
2019-04-07T08:25:07.114Z,14.20
2019-04-07T08:27:35.558Z,14.30
2019-04-07T08:30:11.200Z,14.40
2019-04-07T08:32:37.213Z,14.60
2019-04-07T08:35:07.920Z,14.60
2019-04-07T08:37:36.503Z,14.70
2019-04-07T08:40:07.875Z,14.90
2019-04-07T08:42:36.938Z,14.90
2019-04-07T08:45:07.141Z,15.00
2019-04-07T08:47:35.628Z,15.20
2019-04-07T08:50:07.259Z,15.30
2019-04-07T08:52:40.580Z,15.40
2019-04-07T08:55:10.359Z,15.50
2019-04-07T08:57:38.427Z,15.60
2019-04-07T09:00:13.153Z,15.70
2019-04-07T09:02:39.083Z,15.80
2019-04-07T09:05:09.277Z,15.90
2019-04-07T09:07:37.939Z,16.00
2019-04-07T09:10:09.537Z,16.60
2019-04-07T09:12:37.932Z,18.10
2019-04-07T09:15:11.556Z,19.80
2019-04-07T09:17:45.949Z,21.20
2019-04-07T09:20:29.265Z,22.20
2019-04-07T09:23:15.428Z,23.50
2019-04-07T09:25:45.514Z,24.00
2019-04-07T09:28:32.209Z,24.30
2019-04-07T09:31:04.945Z,24.50
2019-04-07T09:33:36.931Z,24.20
2019-04-07T09:36:23.449Z,24.70
2019-04-07T09:39:00.709Z,24.40
2019-04-07T09:41:29.805Z,24.60
2019-04-07T09:44:17.341Z,25.10
2019-04-07T09:47:06.361Z,25.10
2019-04-07T09:49:36.614Z,25.40
2019-04-07T09:52:17.070Z,26.40
2019-04-07T09:55:04.576Z,26.60
2019-04-07T09:57:51.210Z,26.60
2019-04-07T10:00:25.136Z,26.60
2019-04-07T10:02:55.229Z,26.90
2019-04-07T10:05:40.912Z,27.40
2019-04-07T10:08:28.136Z,27.50
2019-04-07T10:11:01.744Z,27.80
2019-04-07T10:13:49.014Z,27.90
2019-04-07T10:16:21.084Z,27.50
2019-04-07T10:19:00.734Z,27.60
2019-04-07T10:21:46.585Z,27.90
2019-04-07T10:24:31.569Z,28.20
2019-04-07T10:27:05.896Z,28.50
2019-04-07T10:29:52.421Z,28.60
2019-04-07T10:32:41.774Z,28.00
2019-04-07T10:35:12.579Z,27.50
2019-04-07T10:37:45.092Z,25.80
2019-04-07T10:40:22.175Z,25.30
2019-04-07T10:43:10.682Z,25.70
2019-04-07T10:45:41.752Z,26.60
2019-04-07T10:48:25.767Z,26.90
2019-04-07T10:51:12.420Z,27.30
2019-04-07T10:53:58.727Z,27.90
2019-04-07T10:56:34.952Z,28.50
2019-04-07T10:59:11.450Z,28.90
2019-04-07T11:02:00.267Z,28.50
2019-04-07T11:04:39.803Z,28.30
2019-04-07T11:07:26.645Z,28.40
2019-04-07T11:10:03.715Z,29.10
2019-04-07T11:12:46.904Z,28.80
2019-04-07T11:15:22.796Z,28.40
2019-04-07T11:17:52.835Z,28.60
2019-04-07T11:20:22.989Z,29.50
2019-04-07T11:22:59.640Z,29.70
2019-04-07T11:25:32.740Z,29.60
2019-04-07T11:28:09.516Z,29.90
2019-04-07T11:30:42.125Z,30.50
2019-04-07T11:33:15.074Z,31.00
2019-04-07T11:35:52.121Z,31.50
2019-04-07T11:38:35.272Z,30.80
2019-04-07T11:41:12.410Z,29.30
2019-04-07T11:43:45.439Z,28.50
2019-04-07T11:46:31.788Z,28.40
2019-04-07T11:49:02.445Z,28.90
2019-04-07T11:51:39.003Z,29.10
2019-04-07T11:54:21.678Z,28.20
2019-04-07T11:57:20.422Z,28.20
2019-04-07T12:00:07.594Z,28.60
2019-04-07T12:02:40.444Z,28.70
2019-04-07T12:05:09.876Z,28.70
2019-04-07T12:07:43.580Z,28.70
2019-04-07T12:10:23.103Z,28.60
2019-04-07T12:12:53.816Z,28.10
2019-04-07T12:15:26.726Z,28.10
2019-04-07T12:18:01.429Z,28.80
2019-04-07T12:20:35.432Z,29.00
2019-04-07T12:23:25.191Z,29.50
2019-04-07T12:25:57.604Z,29.60
2019-04-07T12:28:47.588Z,29.10
2019-04-07T12:31:21.423Z,29.80
2019-04-07T12:34:00.092Z,30.20
2019-04-07T12:36:48.652Z,31.30
2019-04-07T12:39:33.597Z,32.40
2019-04-07T12:42:07.099Z,33.00
2019-04-07T12:44:39.874Z,31.70
2019-04-07T12:47:27.630Z,31.20
2019-04-07T12:50:16.663Z,30.90
2019-04-07T12:52:47.334Z,30.50
2019-04-07T12:55:37.231Z,30.90
2019-04-07T12:58:13.826Z,31.40
2019-04-07T13:01:09.813Z,30.90
2019-04-07T13:03:32.134Z,30.20
2019-04-07T13:06:09.256Z,30.30
2019-04-07T13:08:49.073Z,30.70
2019-04-07T13:11:31.221Z,30.40
2019-04-07T13:14:09.916Z,29.00
2019-04-07T13:16:49.257Z,28.00
2019-04-07T13:19:28.579Z,26.60
2019-04-07T13:22:01.610Z,26.90
2019-04-07T13:24:48.643Z,27.80
2019-04-07T13:27:35.240Z,27.60
2019-04-07T13:30:08.753Z,27.10
2019-04-07T13:32:43.231Z,28.00
2019-04-07T13:35:25.626Z,28.60
2019-04-07T13:38:05.566Z,28.00
2019-04-07T13:40:45.182Z,26.30
2019-04-07T13:43:33.201Z,24.90
2019-04-07T13:46:03.781Z,25.30
2019-04-07T13:48:37.915Z,26.60
2019-04-07T13:51:18.255Z,27.60
2019-04-07T13:54:05.614Z,28.30
2019-04-07T13:56:36.515Z,28.60
2019-04-07T13:59:09.848Z,28.90
2019-04-07T14:01:38.660Z,29.40
2019-04-07T14:04:14.195Z,30.00
2019-04-07T14:06:49.945Z,30.50
2019-04-07T14:09:22.717Z,31.00
2019-04-07T14:12:04.817Z,30.60
2019-04-07T14:14:44.692Z,30.30
2019-04-07T14:17:26.143Z,29.40
2019-04-07T14:19:55.384Z,29.20
2019-04-07T14:22:32.094Z,29.30
2019-04-07T14:25:20.190Z,29.40
2019-04-07T14:28:02.478Z,29.70
2019-04-07T14:30:33.949Z,29.70
2019-04-07T14:33:21.459Z,29.50
2019-04-07T14:36:04.323Z,29.20
2019-04-07T14:38:34.578Z,29.50
2019-04-07T14:41:13.919Z,29.20
2019-04-07T14:43:47.520Z,29.10
2019-04-07T14:46:37.901Z,29.00
2019-04-07T14:49:13.497Z,29.00
2019-04-07T14:51:59.133Z,29.60
2019-04-07T14:54:35.329Z,30.00
2019-04-07T14:57:07.344Z,30.40
2019-04-07T14:59:49.663Z,30.40
2019-04-07T15:02:18.064Z,30.10
2019-04-07T15:04:48.093Z,29.70
2019-04-07T15:07:21.572Z,29.30
2019-04-07T15:09:54.603Z,29.40
2019-04-07T15:12:31.995Z,29.40
2019-04-07T15:15:05.537Z,29.70
2019-04-07T15:17:30.521Z,30.00
2019-04-07T15:19:59.020Z,29.90
2019-04-07T15:22:29.948Z,29.50
2019-04-07T15:24:58.100Z,29.50
2019-04-07T15:27:27.318Z,29.40
2019-04-07T15:29:55.701Z,29.20
2019-04-07T15:32:27.344Z,29.00
2019-04-07T15:34:54.611Z,29.20
2019-04-07T15:37:25.011Z,29.40
2019-04-07T15:39:53.541Z,29.20
2019-04-07T15:42:33.118Z,29.10
2019-04-07T15:44:52.080Z,29.20
2019-04-07T15:47:21.909Z,29.00
2019-04-07T15:49:52.844Z,28.60
2019-04-07T15:52:21.850Z,28.20
2019-04-07T15:54:53.357Z,27.50
2019-04-07T15:57:22.010Z,26.70
2019-04-07T15:59:50.972Z,26.30
2019-04-07T16:02:19.525Z,26.00
2019-04-07T16:04:49.413Z,25.80
2019-04-07T16:07:18.699Z,25.50
2019-04-07T16:09:53.868Z,25.40
2019-04-07T16:12:18.068Z,25.60
2019-04-07T16:14:47.052Z,25.90
2019-04-07T16:17:16.914Z,26.10
2019-04-07T16:19:50.951Z,26.00
2019-04-07T16:22:16.943Z,26.10
2019-04-07T16:24:46.299Z,25.90
2019-04-07T16:27:15.228Z,25.50
2019-04-07T16:29:46.107Z,25.10
2019-04-07T16:32:14.613Z,24.70
2019-04-07T16:34:44.035Z,24.30
2019-04-07T16:37:13.822Z,24.00
2019-04-07T16:39:42.777Z,23.80
2019-04-07T16:42:11.193Z,23.50
2019-04-07T16:44:43.935Z,23.10
2019-04-07T16:47:19.550Z,23.00
2019-04-07T16:49:44.673Z,22.90
2019-04-07T16:52:09.958Z,22.80
2019-04-07T16:54:41.644Z,22.70
2019-04-07T16:57:09.325Z,22.40
2019-04-07T16:59:40.737Z,22.20
2019-04-07T17:02:08.131Z,22.00
2019-04-07T17:04:36.569Z,21.70
2019-04-07T17:07:08.875Z,21.40
2019-04-07T17:09:36.609Z,21.10
2019-04-07T17:12:05.417Z,20.80
2019-04-07T17:14:36.118Z,20.60
2019-04-07T17:17:04.827Z,20.40
2019-04-07T17:19:35.863Z,20.20
2019-04-07T17:22:05.007Z,20.00
2019-04-07T17:24:33.475Z,19.80
2019-04-07T17:27:03.047Z,19.60
2019-04-07T17:29:32.266Z,19.50
2019-04-07T17:32:02.838Z,19.50
2019-04-07T17:34:32.567Z,19.40
2019-04-07T17:37:01.052Z,19.30
2019-04-07T17:39:31.528Z,19.20
2019-04-07T17:42:00.373Z,19.20
2019-04-07T17:44:33.975Z,19.10
2019-04-07T17:47:04.181Z,19.00
2019-04-07T17:49:35.858Z,18.80
2019-04-07T17:52:12.761Z,18.60
2019-04-07T17:55:00.014Z,18.40
2019-04-07T17:57:34.810Z,18.20
2019-04-07T18:00:18.534Z,18.00
2019-04-07T18:03:10.300Z,17.80
2019-04-07T18:05:39.472Z,17.80
2019-04-07T18:08:28.341Z,17.70
2019-04-07T18:11:02.316Z,17.60
2019-04-07T18:13:41.970Z,17.50
2019-04-07T18:16:21.246Z,17.50
2019-04-07T18:19:04.434Z,17.50
2019-04-07T18:21:53.803Z,17.40
2019-04-07T18:24:40.464Z,17.30
2019-04-07T18:27:16.655Z,17.30
2019-04-07T18:29:54.989Z,17.20
2019-04-07T18:32:31.893Z,17.10
2019-04-07T18:35:02.585Z,17.00
2019-04-07T18:37:49.140Z,17.00
2019-04-07T18:40:26.339Z,16.90
2019-04-07T18:42:54.005Z,16.80
2019-04-07T18:45:45.949Z,16.80
2019-04-07T18:48:28.461Z,16.70
2019-04-07T18:51:00.898Z,16.60
2019-04-07T18:53:31.838Z,16.60
2019-04-07T18:56:03.435Z,16.70
2019-04-07T18:58:34.387Z,16.70
2019-04-07T19:01:08.876Z,16.60
2019-04-07T19:03:55.968Z,16.60
2019-04-07T19:06:26.561Z,16.50
2019-04-07T19:08:59.843Z,16.50
2019-04-07T19:11:31.101Z,16.40
2019-04-07T19:14:24.620Z,16.50
2019-04-07T19:16:50.424Z,16.50
2019-04-07T19:19:28.695Z,16.50
2019-04-07T19:22:10.990Z,16.60
2019-04-07T19:24:43.927Z,16.60
2019-04-07T19:27:31.472Z,16.60
2019-04-07T19:30:02.145Z,16.60
2019-04-07T19:32:41.225Z,16.50
2019-04-07T19:35:32.267Z,16.50
2019-04-07T19:38:14.214Z,16.50
2019-04-07T19:40:53.930Z,16.40
2019-04-07T19:43:29.255Z,16.30
2019-04-07T19:46:04.808Z,16.30
2019-04-07T19:48:44.928Z,16.30
2019-04-07T19:51:31.939Z,16.30
2019-04-07T19:54:05.219Z,16.30
2019-04-07T19:56:51.632Z,16.30
2019-04-07T19:59:21.780Z,16.20
2019-04-07T20:02:02.104Z,16.10
2019-04-07T20:04:44.862Z,16.00
2019-04-07T20:07:15.882Z,15.90
2019-04-07T20:09:48.350Z,15.70
2019-04-07T20:12:39.541Z,15.60
2019-04-07T20:15:18.332Z,15.50
2019-04-07T20:18:05.967Z,15.40
2019-04-07T20:20:46.498Z,15.30
2019-04-07T20:23:36.028Z,15.20
2019-04-07T20:26:08.810Z,15.10
2019-04-07T20:28:43.470Z,15.00
2019-04-07T20:31:19.437Z,15.00
2019-04-07T20:33:57.403Z,14.90
2019-04-07T20:36:33.848Z,14.90
2019-04-07T20:39:10.076Z,14.90
2019-04-07T20:41:46.882Z,14.70
2019-04-07T20:44:21.033Z,14.60
2019-04-07T20:47:07.914Z,14.60
2019-04-07T20:49:51.548Z,14.70
2019-04-07T20:52:25.004Z,14.70
2019-04-07T20:55:11.950Z,14.70
2019-04-07T20:57:48.210Z,14.70
2019-04-07T21:00:35.656Z,14.60
2019-04-07T21:03:19.795Z,14.60
2019-04-07T21:05:44.337Z,14.50
2019-04-07T21:08:14.981Z,14.30
2019-04-07T21:10:58.015Z,14.10
2019-04-07T21:13:28.957Z,13.90
2019-04-07T21:16:05.716Z,13.70
2019-04-07T21:18:44.938Z,13.60
2019-04-07T21:21:34.556Z,13.30
2019-04-07T21:24:19.838Z,13.10
2019-04-07T21:27:02.588Z,13.00
2019-04-07T21:29:38.599Z,12.90
2019-04-07T21:32:09.788Z,12.90
2019-04-07T21:34:43.060Z,12.70
2019-04-07T21:37:19.784Z,12.80
2019-04-07T21:39:53.657Z,12.70
2019-04-07T21:42:29.206Z,12.70
2019-04-07T21:45:05.420Z,12.60
2019-04-07T21:47:50.317Z,12.50
2019-04-07T21:50:26.651Z,12.50
2019-04-07T21:53:08.933Z,12.40
2019-04-07T21:55:56.171Z,12.30
2019-04-07T21:58:26.603Z,12.20
2019-04-07T22:01:05.079Z,12.10
2019-04-07T22:03:49.728Z,12.10
2019-04-07T22:06:23.178Z,12.00
2019-04-07T22:08:53.953Z,11.90
2019-04-07T22:11:25.373Z,11.80
2019-04-07T22:13:53.377Z,11.70
2019-04-07T22:16:24.142Z,11.60
2019-04-07T22:18:51.958Z,11.50
2019-04-07T22:21:22.302Z,11.40
2019-04-07T22:23:50.723Z,11.40
2019-04-07T22:26:20.317Z,11.40
2019-04-07T22:28:49.428Z,11.20
2019-04-07T22:31:19.451Z,11.20
2019-04-07T22:33:47.857Z,11.20
2019-04-07T22:36:16.733Z,11.10
2019-04-07T22:38:45.719Z,11.10
2019-04-07T22:41:14.114Z,11.10
2019-04-07T22:43:43.414Z,11.00
2019-04-07T22:46:17.476Z,11.00
2019-04-07T22:48:42.608Z,11.00
2019-04-07T22:51:12.490Z,10.90
2019-04-07T22:53:41.328Z,10.90
2019-04-07T22:56:10.307Z,10.80
2019-04-07T22:58:38.695Z,10.80
2019-04-07T23:01:07.720Z,10.80
2019-04-07T23:03:36.968Z,10.70
2019-04-07T23:06:05.984Z,10.70
2019-04-07T23:08:35.015Z,10.60
2019-04-07T23:11:04.473Z,10.60
2019-04-07T23:13:32.862Z,10.60
2019-04-07T23:16:10.589Z,10.50
2019-04-07T23:18:31.759Z,10.50
2019-04-07T23:21:01.138Z,10.40
2019-04-07T23:23:31.017Z,10.20
2019-04-07T23:26:00.020Z,10.20
2019-04-07T23:28:28.412Z,10.10
2019-04-07T23:30:56.967Z,10.10
2019-04-07T23:33:25.877Z,10.20
2019-04-07T23:35:54.278Z,10.10
2019-04-07T23:38:22.673Z,10.10
2019-04-07T23:40:51.508Z,10.10
2019-04-07T23:43:21.537Z,10.10
2019-04-07T23:45:50.600Z,10.10
2019-04-07T23:48:19.176Z,10.00
2019-04-07T23:50:48.172Z,10.00
2019-04-07T23:53:53.765Z,10.00
2019-04-07T23:56:22.803Z,10.00
2019-04-07T23:58:52.014Z,10.00
